Time;durP1;ratioP1;P1;durP2;ratioP2;P2;SDS_P1;SDS_P2;PMS_P1;PMS_P2;Temp;Humidity;BMP_temperature;BMP_pressure;BME280_temperature;BME280_humidity;BME280_pressure;Samples;Min_cycle;Max_cycle;Signal;HPM_P1;HPM_P2
2022/01/09 00:00:09;;;;;;;;;;;5.40;99.90;;;;;;5055684;28;19928;-89
2022/01/09 00:02:35;;;;;;;;;;;5.40;99.90;;;;;;5055395;28;20367;-90
2022/01/09 00:05:02;;;;;;;;;;;5.70;99.90;;;;;;5055336;28;19938;-90
2022/01/09 00:07:29;;;;;;;;;;;5.40;99.90;;;;;;5055310;28;19925;-90
2022/01/09 00:09:57;;;;;;;;;;;5.20;99.90;;;;;;5057058;28;19932;-88
2022/01/09 00:12:23;;;;;;;;;;;5.60;99.90;;;;;;5065898;28;19947;-87
2022/01/09 00:14:52;;;;;;;;;;;5.40;99.90;;;;;;5066540;28;19970;-87
2022/01/09 00:17:19;;;;;;;;;;;5.50;99.90;;;;;;5067037;28;19924;-87
2022/01/09 00:19:46;;;;;;;;;;;5.50;99.90;;;;;;5057679;28;19979;-89
2022/01/09 00:22:13;;;;;;;;;;;5.90;99.90;;;;;;5056702;28;19974;-90
2022/01/09 00:24:40;;;;;;;;;;;5.30;99.90;;;;;;5055349;28;20438;-90
2022/01/09 00:27:07;;;;;;;;;;;5.70;99.90;;;;;;5055314;28;19932;-90
2022/01/09 00:29:34;;;;;;;;;;;5.50;99.90;;;;;;5055458;28;19929;-90
2022/01/09 00:32:02;;;;;;;;;;;5.60;99.90;;;;;;5055352;28;20268;-89
2022/01/09 00:34:29;;;;;;;;;;;5.60;99.90;;;;;;5055651;28;19925;-88
2022/01/09 00:36:56;;;;;;;;;;;5.80;99.90;;;;;;5054991;28;20298;-90
2022/01/09 00:39:23;;;;;;;;;;;6.00;99.90;;;;;;5054817;28;19928;-89
2022/01/09 00:41:50;;;;;;;;;;;5.50;99.90;;;;;;5055040;28;20375;-89
2022/01/09 00:44:16;;;;;;;;;;;5.60;99.90;;;;;;5055840;28;19931;-88
2022/01/09 00:46:43;;;;;;;;;;;5.60;99.90;;;;;;5055470;28;19933;-89
2022/01/09 00:49:11;;;;;;;;;;;5.60;99.90;;;;;;5054769;28;19928;-89
2022/01/09 00:51:38;;;;;;;;;;;5.90;99.90;;;;;;5054780;28;19932;-88
2022/01/09 00:54:05;;;;;;;;;;;5.60;99.90;;;;;;5054540;28;19932;-90
2022/01/09 00:56:32;;;;;;;;;;;5.70;99.90;;;;;;5054667;28;19925;-89
2022/01/09 00:58:59;;;;;;;;;;;3.90;99.90;;;;;;5055021;28;19978;-89
2022/01/09 01:01:25;;;;;;;;;;;5.70;99.90;;;;;;5055381;28;19925;-91
2022/01/09 01:03:52;;;;;;;;;;;5.70;99.90;;;;;;5054948;28;20394;-88
2022/01/09 01:06:20;;;;;;;;;;;5.70;99.90;;;;;;5054890;28;19925;-89
2022/01/09 01:08:47;;;;;;;;;;;5.90;99.90;;;;;;5058118;28;19932;-89
2022/01/09 01:11:14;;;;;;;;;;;5.70;99.90;;;;;;5058784;28;19939;-89
2022/01/09 01:13:41;;;;;;;;;;;5.90;99.90;;;;;;5059186;28;19929;-88
2022/01/09 01:16:08;;;;;;;;;;;5.70;99.90;;;;;;5059080;28;19925;-90
2022/01/09 01:18:34;;;;;;;;;;;5.70;99.90;;;;;;5058962;28;19929;-90
2022/01/09 01:21:01;;;;;;;;;;;3.90;99.90;;;;;;5058904;28;19933;-90
2022/01/09 01:23:30;;;;;;;;;;;5.70;99.90;;;;;;5059525;28;19932;-90
2022/01/09 01:26:00;;;;;;;;;;;6.00;99.90;;;;;;5059001;28;19924;-91
2022/01/09 01:28:27;;;;;;;;;;;6.10;99.90;;;;;;5060934;28;20379;-90
2022/01/09 01:30:54;;;;;;;;;;;5.80;99.90;;;;;;5058994;28;19974;-91
2022/01/09 01:33:21;;;;;;;;;;;5.80;99.90;;;;;;5059472;28;19933;-89
2022/01/09 01:35:48;;;;;;;;;;;6.00;99.90;;;;;;5058423;28;19929;-89
2022/01/09 01:38:15;;;;;;;;;;;5.70;99.90;;;;;;5058849;28;19925;-89
2022/01/09 01:40:43;;;;;;;;;;;5.90;99.90;;;;;;5058625;28;19924;-89
2022/01/09 01:43:11;;;;;;;;;;;6.20;99.90;;;;;;5058562;28;19978;-88
2022/01/09 01:45:37;;;;;;;;;;;5.80;99.90;;;;;;5058824;28;19924;-89
2022/01/09 01:48:06;;;;;;;;;;;5.90;99.90;;;;;;5058485;28;19929;-88
2022/01/09 01:50:36;;;;;;;;;;;5.80;99.90;;;;;;5058488;28;19925;-89
2022/01/09 01:53:05;;;;;;;;;;;5.80;99.90;;;;;;5058698;28;19924;-90
2022/01/09 01:55:36;;;;;;;;;;;5.80;99.90;;;;;;5058099;28;20363;-89
2022/01/09 01:58:04;;;;;;;;;;;5.80;99.90;;;;;;5058465;28;19924;-90
2022/01/09 02:00:31;;;;;;;;;;;5.90;99.90;;;;;;5058185;28;19928;-89
2022/01/09 02:02:58;;;;;;;;;;;6.00;99.90;;;;;;5058099;28;19928;-89
2022/01/09 02:05:27;;;;;;;;;;;6.00;99.90;;;;;;5058205;28;19924;-89
2022/01/09 02:07:54;;;;;;;;;;;5.70;99.90;;;;;;5057467;28;20402;-88
2022/01/09 02:10:20;;;;;;;;;;;5.80;99.90;;;;;;5066726;28;19924;-87
2022/01/09 02:12:49;;;;;;;;;;;5.80;99.90;;;;;;5048113;28;20337;-89
2022/01/09 02:15:34;;;;;;;;;;;4.00;99.90;;;;;;5048858;28;20303;-88
2022/01/09 02:18:01;;;;;;;;;;;5.20;99.90;;;;;;5042236;28;19925;-89
2022/01/09 02:20:29;;;;;;;;;;;5.70;99.90;;;;;;5037334;28;19933;-90
2022/01/09 02:22:57;;;;;;;;;;;5.70;99.90;;;;;;5037181;28;19933;-90
2022/01/09 02:25:23;;;;;;;;;;;5.70;99.90;;;;;;5037544;28;20353;-89
2022/01/09 02:27:50;;;;;;;;;;;5.70;99.90;;;;;;5037312;28;20441;-90
2022/01/09 02:30:17;;;;;;;;;;;6.10;99.90;;;;;;5037679;28;19929;-89
2022/01/09 02:32:44;;;;;;;;;;;5.80;99.90;;;;;;5037855;28;19936;-88
2022/01/09 02:35:11;;;;;;;;;;;5.10;99.90;;;;;;5037710;28;19931;-90
2022/01/09 02:37:39;;;;;;;;;;;5.70;99.90;;;;;;5038286;28;19927;-89
2022/01/09 02:40:06;;;;;;;;;;;5.80;99.90;;;;;;5038033;28;19925;-89
2022/01/09 02:42:34;;;;;;;;;;;5.60;99.90;;;;;;5037819;28;19929;-90
2022/01/09 02:45:01;;;;;;;;;;;5.80;99.90;;;;;;5037539;28;19925;-89
2022/01/09 02:47:30;;;;;;;;;;;5.60;99.90;;;;;;5036795;28;19925;-89
2022/01/09 02:50:05;;;;;;;;;;;5.60;99.90;;;;;;5036993;28;19929;-90
2022/01/09 02:52:34;;;;;;;;;;;5.80;99.90;;;;;;5037173;28;19925;-88
2022/01/09 02:55:11;;;;;;;;;;;5.60;99.90;;;;;;5036825;28;19963;-92
2022/01/09 02:57:38;;;;;;;;;;;5.80;99.90;;;;;;5055845;28;19925;-89
2022/01/09 03:00:07;;;;;;;;;;;5.60;99.90;;;;;;5057702;28;19925;-88
2022/01/09 03:02:33;;;;;;;;;;;5.70;99.90;;;;;;5057440;28;19925;-89
2022/01/09 03:05:00;;;;;;;;;;;5.60;99.90;;;;;;5057818;28;20271;-90
2022/01/09 03:07:27;;;;;;;;;;;5.60;99.90;;;;;;5056436;28;19925;-89
2022/01/09 03:09:54;;;;;;;;;;;5.60;99.90;;;;;;5057204;28;19936;-89
2022/01/09 03:12:23;;;;;;;;;;;6.10;99.90;;;;;;5056993;28;20371;-88
2022/01/09 03:14:50;;;;;;;;;;;5.60;99.90;;;;;;5056296;28;19924;-90
2022/01/09 03:17:17;;;;;;;;;;;5.60;99.90;;;;;;5056565;28;19925;-89
2022/01/09 03:19:45;;;;;;;;;;;5.80;99.90;;;;;;5056654;28;19924;-90
2022/01/09 03:22:12;;;;;;;;;;;5.60;99.90;;;;;;5056129;28;19932;-89
2022/01/09 03:24:39;;;;;;;;;;;5.60;99.90;;;;;;5056077;28;19993;-89
2022/01/09 03:27:06;;;;;;;;;;;5.60;99.90;;;;;;5057160;28;19925;-89
2022/01/09 03:29:34;;;;;;;;;;;5.70;99.90;;;;;;5057774;28;19931;-90
2022/01/09 03:32:01;;;;;;;;;;;5.50;99.90;;;;;;5056297;28;19924;-89
2022/01/09 03:34:28;;;;;;;;;;;5.50;99.90;;;;;;5057087;28;20298;-88
2022/01/09 03:36:55;;;;;;;;;;;4.80;99.90;;;;;;5056405;28;19929;-90
2022/01/09 03:39:21;;;;;;;;;;;5.60;99.90;;;;;;5055547;28;19924;-89
2022/01/09 03:41:48;;;;;;;;;;;5.50;99.90;;;;;;5056375;28;19986;-89
2022/01/09 03:44:15;;;;;;;;;;;5.40;99.90;;;;;;5056154;28;19928;-90
2022/01/09 03:46:43;;;;;;;;;;;5.80;99.90;;;;;;5056202;28;19924;-89
2022/01/09 03:49:10;;;;;;;;;;;5.40;99.90;;;;;;5055893;28;19925;-89
2022/01/09 03:51:38;;;;;;;;;;;5.40;99.90;;;;;;5055648;28;19979;-90
2022/01/09 03:54:05;;;;;;;;;;;5.80;99.90;;;;;;5056076;28;19924;-90
2022/01/09 03:56:32;;;;;;;;;;;5.40;99.90;;;;;;5055876;28;19925;-90
2022/01/09 03:58:59;;;;;;;;;;;5.60;99.90;;;;;;5055480;28;19970;-90
2022/01/09 04:01:26;;;;;;;;;;;3.50;99.90;;;;;;5055808;28;19924;-89
2022/01/09 04:03:54;;;;;;;;;;;5.30;99.90;;;;;;5056447;28;19924;-89
2022/01/09 04:06:23;;;;;;;;;;;5.40;99.90;;;;;;5055989;28;20291;-90
2022/01/09 04:08:51;;;;;;;;;;;5.40;99.90;;;;;;5057594;28;19979;-88
2022/01/09 04:11:22;;;;;;;;;;;5.50;99.90;;;;;;5065132;28;19925;-88
2022/01/09 04:13:49;;;;;;;;;;;5.30;99.90;;;;;;5052595;28;19925;-88
2022/01/09 04:16:16;;;;;;;;;;;5.40;99.90;;;;;;5046521;28;19932;-89
2022/01/09 04:18:43;;;;;;;;;;;4.70;99.90;;;;;;5038060;28;19925;-89
2022/01/09 04:21:11;;;;;;;;;;;5.30;99.90;;;;;;5036651;28;19925;-89
2022/01/09 04:23:38;;;;;;;;;;;5.20;99.90;;;;;;5037157;28;19932;-90
2022/01/09 04:26:04;;;;;;;;;;;5.30;99.90;;;;;;5036924;28;19943;-90
2022/01/09 04:28:31;;;;;;;;;;;5.20;99.90;;;;;;5036682;28;19925;-88
2022/01/09 04:30:58;;;;;;;;;;;5.30;99.90;;;;;;5036519;28;19972;-90
2022/01/09 04:33:25;;;;;;;;;;;5.20;99.90;;;;;;5036518;28;19929;-90
2022/01/09 04:35:52;;;;;;;;;;;5.10;99.90;;;;;;5036140;28;19925;-90
2022/01/09 04:38:20;;;;;;;;;;;5.10;99.90;;;;;;5036213;28;19929;-89
2022/01/09 04:40:47;;;;;;;;;;;5.30;99.90;;;;;;5036351;28;19926;-90
2022/01/09 04:43:15;;;;;;;;;;;5.10;99.90;;;;;;5034505;28;19955;-89
2022/01/09 04:45:42;;;;;;;;;;;5.60;99.90;;;;;;5035735;28;19925;-90
2022/01/09 04:48:11;;;;;;;;;;;5.10;99.90;;;;;;5036001;28;20383;-90
2022/01/09 04:50:39;;;;;;;;;;;5.20;99.90;;;;;;5035775;28;20008;-90
2022/01/09 04:53:09;;;;;;;;;;;5.20;99.90;;;;;;5035320;28;20446;-90
2022/01/09 04:55:38;;;;;;;;;;;5.30;99.90;;;;;;5040866;28;20473;-89
2022/01/09 04:58:05;;;;;;;;;;;5.30;99.90;;;;;;5055907;28;19925;-89
2022/01/09 05:00:32;;;;;;;;;;;5.40;99.90;;;;;;5055732;28;19994;-89
2022/01/09 05:02:58;;;;;;;;;;;5.60;99.90;;;;;;5055730;28;19924;-90
2022/01/09 05:05:25;;;;;;;;;;;5.40;99.90;;;;;;5056122;28;19983;-90
2022/01/09 05:07:52;;;;;;;;;;;5.20;99.90;;;;;;5055917;28;19925;-90
2022/01/09 05:10:19;;;;;;;;;;;5.60;99.90;;;;;;5056166;28;19971;-89
2022/01/09 05:12:47;;;;;;;;;;;5.40;99.90;;;;;;5055633;28;19929;-89
2022/01/09 05:15:16;;;;;;;;;;;5.60;99.90;;;;;;5056333;28;19929;-88
2022/01/09 05:17:42;;;;;;;;;;;5.50;99.90;;;;;;5055760;28;19924;-91
2022/01/09 05:20:10;;;;;;;;;;;5.40;99.90;;;;;;5056191;28;19925;-89
2022/01/09 05:22:36;;;;;;;;;;;5.60;99.90;;;;;;5055668;28;19932;-90
2022/01/09 05:25:06;;;;;;;;;;;5.30;99.90;;;;;;5056012;28;19925;-89
2022/01/09 05:27:33;;;;;;;;;;;5.50;99.90;;;;;;5056107;28;19992;-90
2022/01/09 05:30:01;;;;;;;;;;;5.50;99.90;;;;;;5055630;28;19929;-90
2022/01/09 05:32:28;;;;;;;;;;;5.60;99.90;;;;;;5056187;28;19967;-89
2022/01/09 05:34:55;;;;;;;;;;;5.20;99.90;;;;;;5055967;28;19931;-90
2022/01/09 05:37:22;;;;;;;;;;;5.20;99.90;;;;;;5055781;28;19928;-91
2022/01/09 05:39:48;;;;;;;;;;;5.10;99.90;;;;;;5055977;28;19925;-89
2022/01/09 05:42:15;;;;;;;;;;;5.10;99.90;;;;;;5056152;28;19924;-89
2022/01/09 05:44:42;;;;;;;;;;;5.10;99.90;;;;;;5055537;28;19963;-90
2022/01/09 05:47:10;;;;;;;;;;;4.90;99.90;;;;;;5055602;28;20426;-90
2022/01/09 05:49:37;;;;;;;;;;;5.20;99.90;;;;;;5055706;28;19924;-90
2022/01/09 05:52:04;;;;;;;;;;;5.30;99.90;;;;;;5055741;28;19926;-89
2022/01/09 05:54:31;;;;;;;;;;;5.10;99.90;;;;;;5056489;28;19951;-89
2022/01/09 05:56:58;;;;;;;;;;;4.70;99.90;;;;;;5059028;28;19929;-89
2022/01/09 05:59:24;;;;;;;;;;;5.00;99.90;;;;;;5058782;28;19971;-89
2022/01/09 06:01:51;;;;;;;;;;;5.00;99.90;;;;;;5059549;28;19925;-89
2022/01/09 06:04:19;;;;;;;;;;;4.90;99.90;;;;;;5058962;28;19947;-91
2022/01/09 06:06:46;;;;;;;;;;;5.00;99.90;;;;;;5058851;28;19937;-90
2022/01/09 06:09:13;;;;;;;;;;;5.10;99.90;;;;;;5062703;28;19932;-88
2022/01/09 06:11:40;;;;;;;;;;;5.20;99.90;;;;;;5068418;28;19924;-88
2022/01/09 06:14:07;;;;;;;;;;;5.00;99.90;;;;;;5066049;28;20353;-88
2022/01/09 06:16:33;;;;;;;;;;;5.10;99.90;;;;;;5068697;28;19924;-89
2022/01/09 06:19:00;;;;;;;;;;;4.90;99.90;;;;;;5059769;28;19928;-90
2022/01/09 06:21:28;;;;;;;;;;;5.20;99.90;;;;;;5059365;28;19929;-90
2022/01/09 06:23:55;;;;;;;;;;;5.50;99.90;;;;;;5057883;28;19971;-90
2022/01/09 06:26:22;;;;;;;;;;;4.50;99.90;;;;;;5058571;28;19925;-89
2022/01/09 06:28:49;;;;;;;;;;;4.90;99.90;;;;;;5058751;28;19925;-90
2022/01/09 06:31:16;;;;;;;;;;;4.90;99.90;;;;;;5058443;28;20304;-90
2022/01/09 06:33:42;;;;;;;;;;;4.90;99.90;;;;;;5058420;28;19939;-89
2022/01/09 06:36:09;;;;;;;;;;;5.10;99.90;;;;;;5057806;28;19935;-89
2022/01/09 06:38:38;;;;;;;;;;;4.90;99.90;;;;;;5057195;28;19928;-90
2022/01/09 06:41:05;;;;;;;;;;;4.90;99.90;;;;;;5057818;28;20379;-91
2022/01/09 06:43:32;;;;;;;;;;;4.90;99.90;;;;;;5058037;28;19924;-89
2022/01/09 06:45:58;;;;;;;;;;;4.90;99.90;;;;;;5058551;28;19974;-89
2022/01/09 06:48:25;;;;;;;;;;;4.90;99.90;;;;;;5058478;28;20368;-90
2022/01/09 06:50:52;;;;;;;;;;;5.20;99.90;;;;;;5058146;28;19925;-88
2022/01/09 06:53:19;;;;;;;;;;;4.80;99.90;;;;;;5057481;28;20307;-91
2022/01/09 06:55:47;;;;;;;;;;;5.30;99.90;;;;;;5058045;28;19924;-89
2022/01/09 06:58:18;;;;;;;;;;;4.90;99.90;;;;;;5057960;28;19929;-90
2022/01/09 07:00:45;;;;;;;;;;;4.80;99.90;;;;;;5058361;28;19972;-90
2022/01/09 07:03:12;;;;;;;;;;;4.70;99.90;;;;;;5057947;28;19929;-90
2022/01/09 07:05:39;;;;;;;;;;;4.70;99.90;;;;;;5057197;28;20291;-90
2022/01/09 07:08:06;;;;;;;;;;;4.70;99.90;;;;;;5057969;28;19925;-90
2022/01/09 07:10:33;;;;;;;;;;;4.60;99.90;;;;;;5058079;28;19924;-90
2022/01/09 07:13:01;;;;;;;;;;;4.60;99.90;;;;;;5057768;28;19925;-89
2022/01/09 07:15:28;;;;;;;;;;;4.60;99.90;;;;;;5057368;28;19925;-91
2022/01/09 07:17:55;;;;;;;;;;;4.60;99.90;;;;;;5057391;28;19925;-90
2022/01/09 07:20:22;;;;;;;;;;;4.70;99.90;;;;;;5056847;28;19971;-89
2022/01/09 07:22:48;;;;;;;;;;;5.40;99.90;;;;;;5057810;28;19979;-90
2022/01/09 07:25:15;;;;;;;;;;;4.70;99.90;;;;;;5057084;28;19998;-89
2022/01/09 07:27:42;;;;;;;;;;;4.90;99.90;;;;;;5057652;28;19924;-90
2022/01/09 07:30:11;;;;;;;;;;;4.80;99.90;;;;;;5057133;28;19924;-91
2022/01/09 07:32:40;;;;;;;;;;;4.70;99.90;;;;;;5057147;28;20345;-90
2022/01/09 07:35:07;;;;;;;;;;;4.90;99.90;;;;;;5057449;28;19925;-89
2022/01/09 07:37:34;;;;;;;;;;;4.70;99.90;;;;;;5057982;28;19932;-89
2022/01/09 07:40:02;;;;;;;;;;;4.70;99.90;;;;;;5056891;28;19947;-90
2022/01/09 07:42:29;;;;;;;;;;;4.60;99.90;;;;;;5057806;28;19971;-89
2022/01/09 07:44:56;;;;;;;;;;;4.60;99.90;;;;;;5057849;28;20287;-90
2022/01/09 07:47:24;;;;;;;;;;;4.70;99.90;;;;;;5057616;28;19925;-91
2022/01/09 07:49:51;;;;;;;;;;;4.70;99.90;;;;;;5057318;28;19978;-90
2022/01/09 07:52:17;;;;;;;;;;;4.70;99.90;;;;;;5057026;28;20437;-89
2022/01/09 07:54:44;;;;;;;;;;;4.90;99.90;;;;;;5056938;28;19948;-88
2022/01/09 07:57:11;;;;;;;;;;;4.90;99.90;;;;;;5057120;28;19986;-90
2022/01/09 07:59:38;;;;;;;;;;;4.90;99.90;;;;;;5057093;28;19933;-90
2022/01/09 08:02:05;;;;;;;;;;;4.90;99.90;;;;;;5057453;28;20432;-90
2022/01/09 08:04:33;;;;;;;;;;;5.00;99.90;;;;;;5056682;28;19932;-90
2022/01/09 08:07:00;;;;;;;;;;;5.00;99.90;;;;;;5057206;28;19924;-91
2022/01/09 08:09:27;;;;;;;;;;;4.90;99.90;;;;;;5063086;28;19924;-88
2022/01/09 08:11:53;;;;;;;;;;;4.90;99.90;;;;;;5066005;28;19932;-89
2022/01/09 08:14:20;;;;;;;;;;;4.70;99.90;;;;;;5065886;28;19975;-89
2022/01/09 08:16:47;;;;;;;;;;;4.50;99.90;;;;;;5062681;28;19925;-89
2022/01/09 08:19:14;;;;;;;;;;;4.50;99.90;;;;;;5053346;28;19955;-91
2022/01/09 08:21:42;;;;;;;;;;;4.60;99.90;;;;;;5036856;28;19925;-90
2022/01/09 08:24:10;;;;;;;;;;;4.40;99.90;;;;;;5036790;28;19925;-90
2022/01/09 08:26:37;;;;;;;;;;;4.30;99.90;;;;;;5037051;28;19933;-90
2022/01/09 08:29:03;;;;;;;;;;;4.30;99.90;;;;;;5036657;28;19925;-90
2022/01/09 08:31:30;;;;;;;;;;;4.30;99.90;;;;;;5036351;28;19971;-89
2022/01/09 08:33:57;;;;;;;;;;;4.40;99.90;;;;;;5035756;28;19925;-90
2022/01/09 08:36:24;;;;;;;;;;;4.40;99.90;;;;;;5035890;28;19947;-90
2022/01/09 08:38:52;;;;;;;;;;;4.30;99.90;;;;;;5036412;28;19979;-91
2022/01/09 08:41:19;;;;;;;;;;;4.30;99.90;;;;;;5036549;28;20294;-89
2022/01/09 08:43:45;;;;;;;;;;;4.30;99.90;;;;;;5036668;28;19925;-90
2022/01/09 08:46:12;;;;;;;;;;;4.30;99.90;;;;;;5036499;28;19929;-90
2022/01/09 08:48:39;;;;;;;;;;;4.40;99.90;;;;;;5036839;28;19929;-90
2022/01/09 08:51:06;;;;;;;;;;;4.50;99.90;;;;;;5036036;28;20441;-89
2022/01/09 08:53:35;;;;;;;;;;;4.40;99.90;;;;;;5036186;28;19925;-89
2022/01/09 08:56:04;;;;;;;;;;;4.50;99.90;;;;;;5036055;28;19964;-89
2022/01/09 08:58:30;;;;;;;;;;;4.40;99.90;;;;;;5035959;28;20031;-90
2022/01/09 09:00:57;;;;;;;;;;;4.50;99.90;;;;;;5036115;28;19929;-89
2022/01/09 09:03:24;;;;;;;;;;;4.70;99.90;;;;;;5038845;28;19979;-92
2022/01/09 09:05:51;;;;;;;;;;;4.20;99.90;;;;;;5056611;28;19925;-90
2022/01/09 09:08:18;;;;;;;;;;;4.40;99.90;;;;;;5056209;28;19955;-90
2022/01/09 09:10:46;;;;;;;;;;;4.50;99.90;;;;;;5055850;28;19925;-90
2022/01/09 09:13:14;;;;;;;;;;;4.40;99.90;;;;;;5056335;28;19928;-89
2022/01/09 09:15:41;;;;;;;;;;;4.50;99.90;;;;;;5055888;28;19928;-89
2022/01/09 09:18:12;;;;;;;;;;;4.60;99.90;;;;;;5056142;28;19928;-89
2022/01/09 09:20:39;;;;;;;;;;;4.60;99.90;;;;;;5055884;28;20286;-89
2022/01/09 09:23:05;;;;;;;;;;;4.40;99.90;;;;;;5055862;28;19925;-90
2022/01/09 09:25:32;;;;;;;;;;;4.70;99.90;;;;;;5055973;28;19925;-89
2022/01/09 09:27:59;;;;;;;;;;;5.00;99.90;;;;;;5056535;28;19925;-89
2022/01/09 09:30:27;;;;;;;;;;;4.80;99.90;;;;;;5060059;28;19925;-88
2022/01/09 09:32:54;;;;;;;;;;;4.70;99.90;;;;;;5059707;28;20278;-90
2022/01/09 09:35:21;;;;;;;;;;;4.90;99.90;;;;;;5059809;28;19924;-89
2022/01/09 09:37:48;;;;;;;;;;;4.90;99.90;;;;;;5060400;28;19958;-91
2022/01/09 09:40:15;;;;;;;;;;;4.80;99.90;;;;;;5059979;28;19929;-90
2022/01/09 09:42:42;;;;;;;;;;;5.00;99.90;;;;;;5060080;28;19929;-89
2022/01/09 09:45:10;;;;;;;;;;;5.10;99.90;;;;;;5060099;28;19924;-91
2022/01/09 09:47:39;;;;;;;;;;;5.10;99.90;;;;;;5059921;28;19932;-89
2022/01/09 09:50:07;;;;;;;;;;;5.40;99.90;;;;;;5059616;28;19929;-89
2022/01/09 09:52:34;;;;;;;;;;;5.50;99.90;;;;;;5059769;28;19924;-89
2022/01/09 09:55:01;;;;;;;;;;;4.60;99.90;;;;;;5059589;28;19924;-89
2022/01/09 09:57:28;;;;;;;;;;;5.30;99.90;;;;;;5059838;28;19932;-91
2022/01/09 09:59:59;;;;;;;;;;;5.10;99.90;;;;;;5059153;28;20291;-90
2022/01/09 10:02:26;;;;;;;;;;;5.20;99.90;;;;;;5059451;28;20341;-90
2022/01/09 10:05:02;;;;;;;;;;;5.20;99.90;;;;;;5060228;28;19925;-90
2022/01/09 10:07:29;;;;;;;;;;;5.10;99.90;;;;;;5061249;28;19925;-89
2022/01/09 10:09:57;;;;;;;;;;;5.10;99.90;;;;;;5063403;28;19925;-89
2022/01/09 10:12:24;;;;;;;;;;;5.20;99.90;;;;;;5061230;28;19925;-90
2022/01/09 10:14:53;;;;;;;;;;;5.60;99.90;;;;;;5060034;28;19925;-91
2022/01/09 10:17:20;;;;;;;;;;;5.40;99.90;;;;;;5060003;28;19928;-89
2022/01/09 10:19:48;;;;;;;;;;;5.40;99.90;;;;;;5059127;28;20019;-89
2022/01/09 10:22:26;;;;;;;;;;;5.40;99.90;;;;;;5058959;28;19925;-89
2022/01/09 10:24:56;;;;;;;;;;;5.40;99.90;;;;;;5054117;28;19936;-90
2022/01/09 10:27:29;;;;;;;;;;;5.40;99.90;;;;;;5037812;28;20433;-90
2022/01/09 10:29:56;;;;;;;;;;;5.30;99.90;;;;;;5038547;28;19929;-90
2022/01/09 10:32:25;;;;;;;;;;;5.30;99.90;;;;;;5039490;28;19926;-90
2022/01/09 10:35:04;;;;;;;;;;;4.30;99.90;;;;;;5042119;28;19925;-90
2022/01/09 10:37:32;;;;;;;;;;;5.40;99.90;;;;;;5040916;28;19925;-89
2022/01/09 10:40:00;;;;;;;;;;;5.60;99.90;;;;;;5039025;28;20000;-91
2022/01/09 10:42:28;;;;;;;;;;;5.60;99.90;;;;;;5039856;28;20011;-90
2022/01/09 10:45:15;;;;;;;;;;;5.90;99.90;;;;;;5039242;28;19936;-87
2022/01/09 10:47:52;;;;;;;;;;;;;;;;;;;;;
2022/01/09 10:50:29;;;;;;;;;;;5.00;99.90;;;;;;5039619;28;19929;-90
2022/01/09 10:53:30;;;;;;;;;;;5.70;99.90;;;;;;5040809;28;19932;-89
2022/01/09 10:56:03;;;;;;;;;;;5.60;99.90;;;;;;5038885;28;19925;-89
2022/01/09 10:58:30;;;;;;;;;;;5.90;99.90;;;;;;5040950;28;20367;-89
2022/01/09 11:01:08;;;;;;;;;;;6.20;99.90;;;;;;5038767;28;20334;-92
2022/01/09 11:03:35;;;;;;;;;;;8.20;99.90;;;;;;5043818;28;19932;-90
2022/01/09 11:06:04;;;;;;;;;;;6.10;99.90;;;;;;5059999;28;19994;-89
2022/01/09 11:08:32;;;;;;;;;;;5.90;99.90;;;;;;5059677;28;19931;-90
2022/01/09 11:10:59;;;;;;;;;;;6.00;99.90;;;;;;5058847;28;19935;-90
2022/01/09 11:13:28;;;;;;;;;;;6.00;99.90;;;;;;5058325;28;19948;-90
2022/01/09 11:18:42;;;;;;;;;;;6.30;99.90;;;;;;5058573;28;20523;-90
2022/01/09 11:21:10;;;;;;;;;;;6.00;99.90;;;;;;5057787;28;19928;-91
2022/01/09 11:23:44;;;;;;;;;;;6.30;99.90;;;;;;5058164;28;19925;-88
2022/01/09 11:26:13;;;;;;;;;;;6.30;99.90;;;;;;5059515;28;19947;-89
2022/01/09 11:28:42;;;;;;;;;;;6.60;99.90;;;;;;5058085;28;20007;-88
2022/01/09 11:31:14;;;;;;;;;;;6.50;99.90;;;;;;5057740;28;19929;-90
2022/01/09 11:33:48;;;;;;;;;;;7.80;99.90;;;;;;5057837;28;19925;-90
2022/01/09 11:36:17;;;;;;;;;;;6.80;99.90;;;;;;5058153;28;20015;-88
2022/01/09 11:38:50;;;;;;;;;;;6.80;99.90;;;;;;5058459;28;19925;-89
2022/01/09 11:41:18;;;;;;;;;;;6.50;99.90;;;;;;5057008;28;19978;-90
2022/01/09 11:43:53;;;;;;;;;;;6.50;99.90;;;;;;5057870;28;20306;-90
2022/01/09 11:46:20;;;;;;;;;;;7.10;99.90;;;;;;5059509;28;19929;-88
2022/01/09 11:48:59;;;;;;;;;;;7.00;99.90;;;;;;5058668;28;20469;-90
2022/01/09 11:51:26;;;;;;;;;;;6.70;99.90;;;;;;5060577;28;20012;-90
2022/01/09 11:54:05;;;;;;;;;;;6.60;99.90;;;;;;5058027;28;19966;-90
2022/01/09 11:56:49;;;;;;;;;;;6.50;99.90;;;;;;5057860;28;19924;-91
2022/01/09 11:59:21;;;;;;;;;;;6.50;99.90;;;;;;5057302;28;19928;-89
2022/01/09 12:01:49;;;;;;;;;;;6.60;99.90;;;;;;5058078;28;20006;-89
2022/01/09 12:04:33;;;;;;;;;;;6.70;99.90;;;;;;5060268;28;19929;-91
2022/01/09 12:07:00;;;;;;;;;;;6.80;99.90;;;;;;5058338;28;19924;-90
2022/01/09 12:09:34;;;;;;;;;;;7.00;99.90;;;;;;5062122;28;19928;-91
2022/01/09 12:12:08;;;;;;;;;;;7.30;99.90;;;;;;5058143;28;19925;-89
2022/01/09 12:14:53;;;;;;;;;;;7.40;99.90;;;;;;5055636;28;19925;-89
2022/01/09 12:17:39;;;;;;;;;;;7.20;99.90;;;;;;5049214;28;19932;-89
2022/01/09 12:20:09;;;;;;;;;;;7.20;99.90;;;;;;5076935;28;20011;-89
2022/01/09 12:22:49;;;;;;;;;;;7.70;99.90;;;;;;5078214;28;20374;-89
2022/01/09 12:25:31;;;;;;;;;;;7.20;99.90;;;;;;5078319;28;19925;-89
2022/01/09 12:28:03;;;;;;;;;;;8.00;99.90;;;;;;5079755;28;19970;-89
2022/01/09 12:30:44;;;;;;;;;;;7.40;99.90;;;;;;5040907;28;19933;-89
2022/01/09 12:33:11;;;;;;;;;;;6.70;99.90;;;;;;5036016;28;20383;-90
2022/01/09 12:35:40;;;;;;;;;;;7.10;99.90;;;;;;5038780;28;19925;-90
2022/01/09 12:38:07;;;;;;;;;;;7.20;99.90;;;;;;5037043;28;19924;-90
2022/01/09 12:40:36;;;;;;;;;;;7.20;99.90;;;;;;5037054;28;19925;-89
2022/01/09 12:43:04;;;;;;;;;;;5.80;99.90;;;;;;5037463;28;19971;-90
2022/01/09 12:45:32;;;;;;;;;;;7.80;99.90;;;;;;5037158;28;19925;-90
2022/01/09 12:48:00;;;;;;;;;;;7.40;99.90;;;;;;5038028;28;19925;-92
2022/01/09 12:50:28;;;;;;;;;;;7.00;99.90;;;;;;5047068;28;20442;-91
2022/01/09 12:53:09;;;;;;;;;;;7.50;99.90;;;;;;5049535;28;19931;-90
2022/01/09 12:55:53;;;;;;;;;;;7.50;99.90;;;;;;5057140;28;19925;-89
2022/01/09 12:58:21;;;;;;;;;;;7.60;99.90;;;;;;5056369;28;19935;-88
2022/01/09 13:00:48;;;;;;;;;;;7.60;99.90;;;;;;5063872;28;19928;-92
2022/01/09 13:03:18;;;;;;;;;;;7.60;99.90;;;;;;5055261;28;19932;-88
2022/01/09 13:05:52;;;;;;;;;;;7.80;99.90;;;;;;5056208;28;20248;-90
2022/01/09 13:08:19;;;;;;;;;;;7.90;99.90;;;;;;5057045;28;19932;-90
2022/01/09 13:10:58;;;;;;;;;;;7.60;99.90;;;;;;5058540;28;19925;-91
2022/01/09 13:13:25;;;;;;;;;;;7.60;99.90;;;;;;5055776;28;19924;-91
2022/01/09 13:15:53;;;;;;;;;;;7.90;99.90;;;;;;5056029;28;19971;-91
2022/01/09 13:18:34;;;;;;;;;;;7.60;99.90;;;;;;5057043;28;19929;-92
2022/01/09 13:21:08;;;;;;;;;;;7.70;99.90;;;;;;5037321;28;20016;-89
2022/01/09 13:23:35;;;;;;;;;;;7.90;99.90;;;;;;5036454;28;19925;-91
2022/01/09 13:26:03;;;;;;;;;;;8.00;99.90;;;;;;5036683;28;19925;-90
2022/01/09 13:28:31;;;;;;;;;;;7.70;99.90;;;;;;5036026;28;19944;-90
2022/01/09 13:30:59;;;;;;;;;;;8.10;99.90;;;;;;5036133;28;19929;-89
2022/01/09 13:33:27;;;;;;;;;;;7.80;99.90;;;;;;5036762;28;19993;-87
2022/01/09 13:35:54;;;;;;;;;;;7.90;99.90;;;;;;5038139;28;19931;-90
2022/01/09 13:38:21;;;;;;;;;;;8.00;99.90;;;;;;5040577;28;19929;-90
2022/01/09 13:40:49;;;;;;;;;;;9.10;99.90;;;;;;5038698;28;19925;-89
2022/01/09 13:43:21;;;;;;;;;;;8.30;99.90;;;;;;5038117;28;19971;-89
2022/01/09 13:45:48;;;;;;;;;;;8.00;99.90;;;;;;5039207;28;19925;-91
2022/01/09 13:48:15;;;;;;;;;;;7.80;99.90;;;;;;5037388;28;20047;-90
2022/01/09 13:50:46;;;;;;;;;;;8.00;99.90;;;;;;5037018;28;19983;-89
2022/01/09 13:53:13;;;;;;;;;;;6.70;99.90;;;;;;5036469;28;19925;-89
2022/01/09 13:55:40;;;;;;;;;;;8.00;99.90;;;;;;5048094;28;19970;-90
2022/01/09 13:58:09;;;;;;;;;;;8.00;99.90;;;;;;5067972;28;19925;-89
2022/01/09 14:00:38;;;;;;;;;;;8.00;99.90;;;;;;5062029;28;19987;-88
2022/01/09 14:03:06;;;;;;;;;;;8.00;99.90;;;;;;5060348;28;19925;-88
2022/01/09 14:05:35;;;;;;;;;;;8.10;99.90;;;;;;5064223;28;19947;-90
2022/01/09 14:08:02;;;;;;;;;;;8.00;99.90;;;;;;5058268;28;19925;-88
2022/01/09 14:10:32;;;;;;;;;;;8.00;99.90;;;;;;5044351;28;19924;-90
2022/01/09 14:12:59;;;;;;;;;;;8.00;99.90;;;;;;5057484;28;19994;-87
2022/01/09 14:15:27;;;;;;;;;;;8.00;99.90;;;;;;5064496;28;19925;-90
2022/01/09 14:17:56;;;;;;;;;;;8.00;99.90;;;;;;5063102;28;19925;-89
2022/01/09 14:20:24;;;;;;;;;;;8.00;99.90;;;;;;5063828;28;19925;-87
2022/01/09 14:22:51;;;;;;;;;;;8.10;99.90;;;;;;5066921;28;20410;-90
2022/01/09 14:25:26;;;;;;;;;;;8.10;99.90;;;;;;5061653;28;20383;-88
2022/01/09 14:27:54;;;;;;;;;;;8.10;99.90;;;;;;5058591;28;20354;-89
2022/01/09 14:30:23;;;;;;;;;;;8.10;99.90;;;;;;5059380;28;19929;-90
2022/01/09 14:32:51;;;;;;;;;;;8.40;99.90;;;;;;5059832;28;19924;-90
2022/01/09 14:35:29;;;;;;;;;;;8.10;99.90;;;;;;5058791;28;19933;-88
2022/01/09 14:38:00;;;;;;;;;;;8.10;99.90;;;;;;5059899;28;20363;-89
2022/01/09 14:40:27;;;;;;;;;;;7.60;99.90;;;;;;5057352;28;19925;-88